Time;durP1;ratioP1;P1;durP2;ratioP2;P2;SDS_P1;SDS_P2;PMS_P1;PMS_P2;Temp;Humidity;BMP_temperature;BMP_pressure;BME280_temperature;BME280_humidity;BME280_pressure;Samples;Min_cycle;Max_cycle;Signal;HPM_P1;HPM_P2
2022/04/24 00:01:53;;;;;;;16.50;8.15;;;;;;;;;;5050633;28;20438;-81
2022/04/24 00:04:18;;;;;;;17.13;8.73;;;;;;;;;;5037537;28;20045;-81
2022/04/24 00:06:46;;;;;;;19.15;9.27;;;;;;;;;;5021225;28;20029;-81
2022/04/24 00:09:13;;;;;;;18.73;9.18;;;;;;;;;;5054164;28;20057;-80
2022/04/24 00:11:39;;;;;;;15.52;8.52;;;;;;;;;;5054255;28;20033;-82
2022/04/24 00:14:09;;;;;;;12.00;8.02;;;;;;;;;;5055227;28;20335;-80
2022/04/24 00:16:35;;;;;;;13.35;8.35;;;;;;;;;;5053770;28;20446;-81
2022/04/24 00:19:01;;;;;;;20.92;9.18;;;;;;;;;;5055293;28;20120;-80
2022/04/24 00:21:26;;;;;;;22.25;8.60;;;;;;;;;;5063153;28;20056;-81
2022/04/24 00:23:52;;;;;;;15.77;8.85;;;;;;;;;;5040179;28;20025;-81
2022/04/24 00:26:17;;;;;;;14.57;8.23;;;;;;;;;;5053765;28;20029;-81
2022/04/24 00:28:43;;;;;;;16.75;8.75;;;;;;;;;;5037087;28;20024;-80
2022/04/24 00:31:08;;;;;;;14.40;8.50;;;;;;;;;;5054623;28;20086;-80
2022/04/24 00:33:33;;;;;;;16.55;8.77;;;;;;;;;;5053515;28;20519;-81
2022/04/24 00:35:59;;;;;;;18.42;9.70;;;;;;;;;;5053708;28;20116;-81
2022/04/24 00:38:24;;;;;;;14.55;9.50;;;;;;;;;;5054001;28;20029;-80
2022/04/24 00:40:50;;;;;;;14.80;8.57;;;;;;;;;;5037106;28;20401;-80
2022/04/24 00:43:16;;;;;;;14.45;9.05;;;;;;;;;;5061382;28;20041;-80
2022/04/24 00:45:41;;;;;;;15.02;9.30;;;;;;;;;;5054350;28;20039;-81
2022/04/24 00:48:06;;;;;;;30.05;9.63;;;;;;;;;;5053381;28;20115;-80
2022/04/24 00:50:32;;;;;;;22.10;10.00;;;;;;;;;;5054806;28;20439;-80
2022/04/24 00:52:57;;;;;;;21.13;8.80;;;;;;;;;;5053846;28;20032;-82
2022/04/24 00:55:26;;;;;;;15.95;9.20;;;;;;;;;;5020108;28;20064;-80
2022/04/24 00:57:51;;;;;;;16.45;8.82;;;;;;;;;;5054374;28;20378;-80
2022/04/24 01:00:17;;;;;;;15.10;8.70;;;;;;;;;;5052906;28;20055;-80
2022/04/24 01:02:42;;;;;;;14.52;8.55;;;;;;;;;;5058297;28;20433;-81
2022/04/24 01:05:08;;;;;;;14.77;8.70;;;;;;;;;;5056053;28;20394;-81
2022/04/24 01:07:34;;;;;;;15.82;8.88;;;;;;;;;;5019908;28;20021;-80
2022/04/24 01:10:00;;;;;;;14.05;8.48;;;;;;;;;;5020272;28;20680;-80
2022/04/24 01:12:25;;;;;;;17.63;8.80;;;;;;;;;;5020096;28;20035;-80
2022/04/24 01:14:51;;;;;;;15.77;9.30;;;;;;;;;;5036189;28;20033;-80
2022/04/24 01:17:16;;;;;;;16.65;8.90;;;;;;;;;;5054080;28;20366;-80
2022/04/24 01:19:42;;;;;;;14.60;8.00;;;;;;;;;;5036427;28;20063;-81
2022/04/24 01:22:07;;;;;;;13.27;8.13;;;;;;;;;;5019932;28;20033;-81
2022/04/24 01:24:33;;;;;;;13.38;8.43;;;;;;;;;;5048296;28;20452;-80
2022/04/24 01:26:58;;;;;;;15.45;9.05;;;;;;;;;;5054057;28;20033;-81
2022/04/24 01:29:24;;;;;;;16.52;9.20;;;;;;;;;;5053772;28;20079;-81
2022/04/24 01:31:49;;;;;;;16.52;8.85;;;;;;;;;;5019771;28;20029;-82
2022/04/24 01:34:15;;;;;;;14.40;9.13;;;;;;;;;;5003687;28;20040;-81
2022/04/24 01:36:41;;;;;;;15.23;8.65;;;;;;;;;;5019646;28;20072;-81
2022/04/24 01:39:06;;;;;;;16.48;8.90;;;;;;;;;;5019609;28;20032;-82
2022/04/24 01:41:32;;;;;;;18.65;8.27;;;;;;;;;;5020029;28;20339;-81
2022/04/24 01:43:58;;;;;;;14.30;8.60;;;;;;;;;;5040420;28;20047;-80
2022/04/24 01:46:24;;;;;;;14.80;8.65;;;;;;;;;;5058270;28;20098;-80
2022/04/24 01:48:49;;;;;;;15.70;8.48;;;;;;;;;;5053869;28;20427;-80
2022/04/24 01:51:15;;;;;;;20.92;8.98;;;;;;;;;;5036162;28;20159;-80
2022/04/24 01:53:40;;;;;;;17.63;8.88;;;;;;;;;;5036033;28;20087;-80
2022/04/24 01:56:06;;;;;;;15.27;8.57;;;;;;;;;;5019659;28;20083;-81
2022/04/24 01:58:32;;;;;;;15.18;8.88;;;;;;;;;;5035609;28;20126;-80
2022/04/24 02:00:57;;;;;;;13.30;7.97;;;;;;;;;;5054271;28;20443;-80
2022/04/24 02:03:23;;;;;;;14.57;8.43;;;;;;;;;;5053960;28;20440;-80
2022/04/24 02:05:49;;;;;;;14.80;8.50;;;;;;;;;;5051004;28;20041;-80
2022/04/24 02:08:14;;;;;;;15.00;8.32;;;;;;;;;;5053851;28;20120;-80
2022/04/24 02:10:40;;;;;;;15.02;8.35;;;;;;;;;;5052425;28;20340;-80
2022/04/24 02:13:05;;;;;;;14.57;8.60;;;;;;;;;;5053465;28;20082;-80
2022/04/24 02:15:31;;;;;;;14.32;8.57;;;;;;;;;;5035789;28;20136;-79
2022/04/24 02:17:57;;;;;;;14.95;8.38;;;;;;;;;;5054988;28;20021;-80
2022/04/24 02:20:23;;;;;;;26.08;10.68;;;;;;;;;;5039656;28;20025;-80
2022/04/24 02:22:49;;;;;;;25.25;10.30;;;;;;;;;;5039892;28;20029;-80
2022/04/24 02:25:15;;;;;;;21.60;10.90;;;;;;;;;;5058396;28;20021;-80
2022/04/24 02:27:41;;;;;;;22.15;10.18;;;;;;;;;;5059955;28;20047;-80
2022/04/24 02:30:07;;;;;;;25.83;10.85;;;;;;;;;;5055981;28;20025;-80
2022/04/24 02:32:32;;;;;;;27.40;10.35;;;;;;;;;;5056238;28;20044;-81
2022/04/24 02:34:58;;;;;;;25.05;10.82;;;;;;;;;;5057370;28;20029;-80
2022/04/24 02:37:25;;;;;;;22.63;10.85;;;;;;;;;;5055371;28;20355;-80
2022/04/24 02:39:51;;;;;;;23.73;11.50;;;;;;;;;;5055855;28;20362;-80
2022/04/24 02:42:17;;;;;;;25.30;11.93;;;;;;;;;;5039103;28;20029;-80
2022/04/24 02:44:42;;;;;;;25.23;11.73;;;;;;;;;;5061763;28;20008;-80
2022/04/24 02:47:08;;;;;;;21.67;11.52;;;;;;;;;;5056465;28;20033;-81
2022/04/24 02:49:33;;;;;;;22.75;11.63;;;;;;;;;;5056934;28;20029;-80
2022/04/24 02:51:59;;;;;;;25.75;11.43;;;;;;;;;;5039125;28;20443;-80
2022/04/24 02:54:24;;;;;;;25.13;12.63;;;;;;;;;;5057165;28;20025;-80
2022/04/24 02:56:50;;;;;;;21.13;11.80;;;;;;;;;;5038931;28;20024;-80
2022/04/24 02:59:16;;;;;;;25.92;11.40;;;;;;;;;;5039115;28;20462;-80
2022/04/24 03:01:42;;;;;;;20.52;11.88;;;;;;;;;;5060062;28;20117;-80
2022/04/24 03:04:07;;;;;;;22.73;11.52;;;;;;;;;;5039662;28;20101;-80
2022/04/24 03:06:33;;;;;;;22.35;11.13;;;;;;;;;;5071694;28;20048;-80
2022/04/24 03:08:58;;;;;;;29.05;10.82;;;;;;;;;;5058756;28;20072;-79
2022/04/24 03:11:24;;;;;;;24.20;11.07;;;;;;;;;;5074818;28;20017;-80
2022/04/24 03:13:49;;;;;;;22.10;11.68;;;;;;;;;;5074070;28;20618;-80
2022/04/24 03:16:15;;;;;;;30.02;14.00;;;;;;;;;;5071487;28;20033;-81
2022/04/24 03:18:40;;;;;;;26.95;12.15;;;;;;;;;;5038977;28;20132;-80
2022/04/24 03:21:06;;;;;;;25.70;10.82;;;;;;;;;;5039379;28;20470;-79
2022/04/24 03:23:31;;;;;;;20.58;11.30;;;;;;;;;;5039415;28;20454;-80
2022/04/24 03:25:57;;;;;;;17.42;10.52;;;;;;;;;;5046339;28;20079;-79
2022/04/24 03:28:23;;;;;;;17.55;10.48;;;;;;;;;;5021478;28;20347;-80
2022/04/24 03:30:48;;;;;;;18.80;11.02;;;;;;;;;;5038520;28;20025;-80
2022/04/24 03:33:14;;;;;;;20.63;12.25;;;;;;;;;;5055999;28;20135;-80
2022/04/24 03:35:39;;;;;;;31.60;15.73;;;;;;;;;;5005537;28;20037;-80
2022/04/24 03:38:06;;;;;;;29.17;16.88;;;;;;;;;;5037987;28;20072;-80
2022/04/24 03:40:32;;;;;;;25.75;14.32;;;;;;;;;;5038066;28;20040;-80
2022/04/24 03:42:57;;;;;;;27.50;14.07;;;;;;;;;;5055853;28;20033;-80
2022/04/24 03:45:23;;;;;;;27.50;12.05;;;;;;;;;;5055960;28;20029;-79
2022/04/24 03:47:48;;;;;;;20.63;10.52;;;;;;;;;;5043506;28;20430;-80
2022/04/24 03:50:14;;;;;;;15.68;10.10;;;;;;;;;;5055930;28;20040;-80
2022/04/24 03:52:39;;;;;;;19.40;10.25;;;;;;;;;;5037924;28;20029;-80
2022/04/24 03:55:05;;;;;;;15.07;9.02;;;;;;;;;;5037564;28;20036;-81
2022/04/24 03:57:31;;;;;;;18.98;9.18;;;;;;;;;;5055417;28;20040;-80
2022/04/24 03:59:57;;;;;;;13.65;8.18;;;;;;;;;;5037777;28;20446;-80
2022/04/24 04:02:23;;;;;;;12.73;8.73;;;;;;;;;;5037765;28;20033;-80
2022/04/24 04:04:49;;;;;;;18.30;8.00;;;;;;;;;;5040900;28;20140;-80
2022/04/24 04:07:14;;;;;;;17.42;8.40;;;;;;;;;;5040774;28;20068;-80
2022/04/24 04:09:40;;;;;;;12.95;8.20;;;;;;;;;;5056991;28;20465;-81
2022/04/24 04:12:06;;;;;;;16.92;8.13;;;;;;;;;;5055230;28;20434;-82
2022/04/24 04:14:31;;;;;;;16.95;7.90;;;;;;;;;;5037453;28;20028;-81
2022/04/24 04:16:57;;;;;;;19.15;8.27;;;;;;;;;;5055232;28;20484;-81
2022/04/24 04:19:22;;;;;;;16.75;8.35;;;;;;;;;;5054994;28;20430;-81
2022/04/24 04:21:48;;;;;;;11.88;6.95;;;;;;;;;;5053691;28;20055;-80
2022/04/24 04:24:14;;;;;;;11.75;6.93;;;;;;;;;;5053707;28;20092;-81
2022/04/24 04:26:39;;;;;;;9.88;5.90;;;;;;;;;;5037356;28;20025;-82
2022/04/24 04:29:05;;;;;;;14.57;6.57;;;;;;;;;;5046913;28;20033;-82
2022/04/24 04:31:30;;;;;;;16.42;6.90;;;;;;;;;;5021424;28;20480;-80
2022/04/24 04:33:55;;;;;;;12.30;6.95;;;;;;;;;;5055370;28;20056;-81
2022/04/24 04:36:21;;;;;;;14.25;7.18;;;;;;;;;;5054796;28;20033;-81
2022/04/24 04:38:46;;;;;;;15.82;6.82;;;;;;;;;;5054757;28;20048;-79
2022/04/24 04:41:12;;;;;;;15.95;8.07;;;;;;;;;;5053520;28;20040;-80
2022/04/24 04:43:38;;;;;;;17.70;8.98;;;;;;;;;;5036847;28;20032;-80
2022/04/24 04:46:03;;;;;;;18.02;9.75;;;;;;;;;;5054672;28;20029;-80
2022/04/24 04:48:29;;;;;;;20.48;11.02;;;;;;;;;;5044505;28;20668;-79
2022/04/24 04:50:55;;;;;;;19.52;11.27;;;;;;;;;;5060041;28;20086;-80
2022/04/24 04:53:21;;;;;;;26.70;12.38;;;;;;;;;;5036669;28;20025;-80
2022/04/24 04:55:47;;;;;;;25.83;13.43;;;;;;;;;;5020482;28;20025;-80
2022/04/24 04:58:12;;;;;;;28.98;14.00;;;;;;;;;;5054404;28;20446;-80
2022/04/24 05:00:38;;;;;;;27.90;14.77;;;;;;;;;;5053177;28;20021;-80
2022/04/24 05:03:03;;;;;;;32.35;15.27;;;;;;;;;;5036716;28;20066;-80
2022/04/24 05:05:29;;;;;;;30.88;16.02;;;;;;;;;;5054312;28;20037;-80
2022/04/24 05:07:54;;;;;;;28.08;15.07;;;;;;;;;;5021569;28;20438;-80
2022/04/24 05:10:20;;;;;;;25.60;13.20;;;;;;;;;;5065309;28;20024;-81
2022/04/24 05:12:45;;;;;;;28.20;13.25;;;;;;;;;;5036774;28;20064;-80
2022/04/24 05:15:13;;;;;;;21.67;12.30;;;;;;;;;;5054188;28;20025;-81
2022/04/24 05:17:39;;;;;;;22.33;12.27;;;;;;;;;;5036501;28;20021;-81
2022/04/24 05:20:05;;;;;;;22.05;11.73;;;;;;;;;;5036562;28;20029;-80
2022/04/24 05:22:30;;;;;;;18.25;10.77;;;;;;;;;;5019731;28;20044;-80
2022/04/24 05:24:56;;;;;;;20.63;10.98;;;;;;;;;;5054048;28;20358;-81
2022/04/24 05:27:21;;;;;;;20.10;9.60;;;;;;;;;;5019968;28;20087;-80
2022/04/24 05:29:47;;;;;;;18.10;9.27;;;;;;;;;;5037306;28;20036;-81
2022/04/24 05:32:13;;;;;;;16.55;9.32;;;;;;;;;;5038835;28;20090;-81
2022/04/24 05:34:39;;;;;;;16.55;9.13;;;;;;;;;;5054068;28;20365;-80
2022/04/24 05:37:05;;;;;;;18.30;9.45;;;;;;;;;;5053721;28;20025;-82
2022/04/24 05:39:30;;;;;;;17.65;9.82;;;;;;;;;;5036344;28;20033;-81
2022/04/24 05:41:56;;;;;;;18.67;9.82;;;;;;;;;;5036098;28;20040;-81
2022/04/24 05:44:21;;;;;;;15.85;10.15;;;;;;;;;;5036118;28;20381;-81
2022/04/24 05:46:47;;;;;;;18.50;11.50;;;;;;;;;;5036267;28;20369;-81
2022/04/24 05:49:12;;;;;;;20.23;11.38;;;;;;;;;;5003487;28;20021;-81
2022/04/24 05:51:38;;;;;;;19.25;11.52;;;;;;;;;;5042180;28;20089;-81
2022/04/24 05:54:03;;;;;;;17.90;11.00;;;;;;;;;;5040133;28;20035;-82
2022/04/24 05:56:29;;;;;;;20.42;10.70;;;;;;;;;;5040094;28;20029;-81
2022/04/24 05:58:55;;;;;;;20.17;11.88;;;;;;;;;;5057892;28;20373;-82
2022/04/24 06:01:20;;;;;;;23.23;10.80;;;;;;;;;;5023366;28;20036;-81
2022/04/24 06:03:47;;;;;;;16.95;11.13;;;;;;;;;;5007334;28;20370;-82
2022/04/24 06:06:13;;;;;;;21.27;11.00;;;;;;;;;;5054696;28;20037;-81
2022/04/24 06:08:38;;;;;;;17.05;11.32;;;;;;;;;;5039788;28;20032;-82
2022/04/24 06:11:04;;;;;;;16.00;10.68;;;;;;;;;;5060435;28;20272;-81
2022/04/24 06:13:29;;;;;;;17.33;10.07;;;;;;;;;;5060969;28;20025;-82
2022/04/24 06:15:57;;;;;;;12.75;8.63;;;;;;;;;;5057711;28;20025;-82
2022/04/24 06:18:32;;;;;;;14.45;10.13;;;;;;;;;;5040036;28;20548;-83
2022/04/24 06:20:57;;;;;;;15.30;10.05;;;;;;;;;;5039446;28;20064;-82
2022/04/24 06:23:24;;;;;;;13.68;8.90;;;;;;;;;;5039720;28;20110;-82
2022/04/24 06:25:50;;;;;;;14.73;8.95;;;;;;;;;;5057288;28;20024;-82
2022/04/24 06:28:16;;;;;;;11.50;8.40;;;;;;;;;;5039522;28;20412;-82
2022/04/24 06:30:41;;;;;;;17.27;9.80;;;;;;;;;;5057506;28;20024;-81
2022/04/24 06:33:10;;;;;;;15.60;8.73;;;;;;;;;;5064326;28;20377;-82
2022/04/24 06:35:36;;;;;;;16.77;10.00;;;;;;;;;;5039448;28;20059;-82
2022/04/24 06:38:01;;;;;;;14.25;9.18;;;;;;;;;;5022923;28;20295;-82
2022/04/24 06:40:27;;;;;;;15.50;9.77;;;;;;;;;;5055973;28;20017;-82
2022/04/24 06:42:53;;;;;;;22.23;10.35;;;;;;;;;;5022851;28;20438;-82
2022/04/24 06:45:27;;;;;;;14.95;9.60;;;;;;;;;;5057091;28;20120;-82
2022/04/24 06:47:56;;;;;;;16.48;9.63;;;;;;;;;;5055872;28;20031;-81
2022/04/24 06:50:24;;;;;;;15.10;9.32;;;;;;;;;;5039723;28;20025;-82
2022/04/24 06:53:05;;;;;;;14.57;9.65;;;;;;;;;;5028781;28;20059;-81
2022/04/24 06:55:34;;;;;;;13.65;9.07;;;;;;;;;;5040139;28;20035;-82
2022/04/24 06:58:00;;;;;;;14.05;9.25;;;;;;;;;;5023044;28;20413;-82
2022/04/24 07:00:26;;;;;;;15.45;8.95;;;;;;;;;;5038946;28;20064;-82
2022/04/24 07:02:52;;;;;;;15.00;9.35;;;;;;;;;;5054322;28;20041;-82
2022/04/24 07:05:19;;;;;;;13.63;8.93;;;;;;;;;;5038108;28;20531;-83
2022/04/24 07:07:45;;;;;;;14.73;8.93;;;;;;;;;;5055408;28;20029;-82
2022/04/24 07:10:10;;;;;;;16.42;9.00;;;;;;;;;;5055342;28;20162;-82
2022/04/24 07:13:03;;;;;;;12.70;8.80;;;;;;;;;;5055815;28;20517;-84
2022/04/24 07:15:32;;;;;;;16.92;9.10;;;;;;;;;;5040164;28;20136;-82
2022/04/24 07:17:59;;;;;;;11.18;6.88;;;;;;;;;;5054993;28;20025;-84
2022/04/24 07:20:25;;;;;;;10.93;7.25;;;;;;;;;;5055129;28;20078;-83
2022/04/24 07:22:57;;;;;;;13.43;8.30;;;;;;;;;;5055022;28;20041;-82
2022/04/24 07:25:25;;;;;;;15.38;8.60;;;;;;;;;;5055255;28;20123;-83
2022/04/24 07:27:50;;;;;;;17.23;8.43;;;;;;;;;;5022154;28;20056;-81
2022/04/24 07:30:18;;;;;;;11.07;7.72;;;;;;;;;;5038473;28;20450;-82
2022/04/24 07:32:47;;;;;;;13.07;7.72;;;;;;;;;;5055857;28;20037;-83
2022/04/24 07:35:19;;;;;;;18.17;8.47;;;;;;;;;;5062747;28;20033;-84
2022/04/24 07:37:45;;;;;;;14.73;8.90;;;;;;;;;;5054752;28;20673;-83
2022/04/24 07:40:12;;;;;;;13.35;9.18;;;;;;;;;;5054700;28;20071;-82
2022/04/24 07:42:49;;;;;;;15.38;8.80;;;;;;;;;;5054643;28;20029;-83
2022/04/24 07:45:18;;;;;;;13.27;8.65;;;;;;;;;;5055850;28;20435;-83
2022/04/24 07:47:46;;;;;;;14.05;8.65;;;;;;;;;;5054442;28;20031;-83
2022/04/24 07:50:14;;;;;;;16.60;8.10;;;;;;;;;;5038367;28;20033;-83
2022/04/24 07:52:39;;;;;;;14.98;8.65;;;;;;;;;;5038073;28;20028;-82
2022/04/24 07:55:05;;;;;;;12.00;7.65;;;;;;;;;;5063122;28;20036;-83
2022/04/24 07:57:31;;;;;;;10.60;7.90;;;;;;;;;;5054857;28;20124;-83
2022/04/24 07:59:57;;;;;;;10.07;6.75;;;;;;;;;;5037692;28;20025;-83
2022/04/24 08:02:23;;;;;;;11.93;6.63;;;;;;;;;;5054043;28;20508;-84
2022/04/24 08:04:48;;;;;;;10.57;7.18;;;;;;;;;;5055384;28;20048;-83
2022/04/24 08:07:15;;;;;;;10.50;6.88;;;;;;;;;;5055467;28;20047;-83
2022/04/24 08:09:42;;;;;;;12.05;7.75;;;;;;;;;;5055340;28;20435;-83
2022/04/24 08:12:08;;;;;;;12.05;7.82;;;;;;;;;;5055308;28;20440;-84
2022/04/24 08:14:33;;;;;;;15.07;8.60;;;;;;;;;;5038234;28;20029;-82
2022/04/24 08:16:59;;;;;;;12.65;8.23;;;;;;;;;;5044549;28;20477;-83
2022/04/24 08:19:24;;;;;;;11.40;7.50;;;;;;;;;;5055149;28;20025;-83
2022/04/24 08:21:50;;;;;;;9.90;7.22;;;;;;;;;;5055119;28;20548;-83
2022/04/24 08:24:15;;;;;;;10.05;7.25;;;;;;;;;;5037211;28;20374;-83
2022/04/24 08:26:41;;;;;;;13.43;7.70;;;;;;;;;;5020999;28;20438;-82
2022/04/24 08:29:06;;;;;;;15.43;7.88;;;;;;;;;;5054961;28;20061;-83
2022/04/24 08:31:32;;;;;;;9.20;6.80;;;;;;;;;;5054787;28;20029;-82
2022/04/24 08:33:57;;;;;;;10.85;6.32;;;;;;;;;;5037100;28;20481;-84
2022/04/24 08:36:26;;;;;;;11.25;5.93;;;;;;;;;;5065619;28;20029;-83
2022/04/24 08:38:51;;;;;;;10.97;6.50;;;;;;;;;;5020855;28;20119;-83
2022/04/24 08:41:19;;;;;;;10.07;6.65;;;;;;;;;;5020664;28;20056;-83
2022/04/24 08:43:44;;;;;;;10.38;6.63;;;;;;;;;;5004416;28;20131;-83
2022/04/24 08:46:10;;;;;;;13.65;7.07;;;;;;;;;;5020070;28;20021;-84
2022/04/24 08:48:35;;;;;;;17.48;7.90;;;;;;;;;;5020380;28;20032;-82
2022/04/24 08:51:02;;;;;;;14.82;7.32;;;;;;;;;;5003951;28;20446;-83
2022/04/24 08:53:30;;;;;;;11.80;7.97;;;;;;;;;;5037213;28;20025;-84
2022/04/24 08:55:56;;;;;;;13.40;8.07;;;;;;;;;;5023690;28;20036;-82
2022/04/24 08:58:21;;;;;;;14.60;8.02;;;;;;;;;;5042039;28;20035;-84
2022/04/24 09:00:47;;;;;;;14.77;7.65;;;;;;;;;;5019936;28;20446;-83
2022/04/24 09:03:12;;;;;;;10.32;6.95;;;;;;;;;;5036675;28;20111;-84
2022/04/24 09:05:38;;;;;;;12.18;7.03;;;;;;;;;;5029849;28;20398;-83
2022/04/24 09:08:13;;;;;;;9.63;6.53;;;;;;;;;;5036850;28;20051;-84
2022/04/24 09:10:52;;;;;;;8.32;5.28;;;;;;;;;;5036505;28;20025;-83
2022/04/24 09:13:31;;;;;;;7.53;5.00;;;;;;;;;;5036930;28;20370;-84
2022/04/24 09:16:00;;;;;;;6.53;4.93;;;;;;;;;;5053277;28;20033;-83
2022/04/24 09:18:39;;;;;;;7.50;4.60;;;;;;;;;;5062206;28;20414;-82
2022/04/24 09:21:04;;;;;;;7.80;4.40;;;;;;;;;;5052896;28;20076;-82
2022/04/24 09:23:34;;;;;;;6.65;4.10;;;;;;;;;;5036260;28;20037;-82
2022/04/24 09:26:00;;;;;;;6.90;4.30;;;;;;;;;;5035946;28;20029;-80
2022/04/24 09:28:35;;;;;;;6.25;4.00;;;;;;;;;;5035900;28;20335;-82
2022/04/24 09:31:04;;;;;;;8.40;3.60;;;;;;;;;;5020142;28;20029;-83
2022/04/24 09:33:42;;;;;;;6.63;4.25;;;;;;;;;;5053239;28;20021;-85
2022/04/24 09:36:08;;;;;;;6.90;4.10;;;;;;;;;;5036771;28;20037;-82
2022/04/24 09:38:44;;;;;;;13.38;4.72;;;;;;;;;;5044031;28;20040;-83
2022/04/24 09:41:22;;;;;;;7.60;3.90;;;;;;;;;;5019801;28;20025;-83
2022/04/24 09:43:51;;;;;;;10.35;4.22;;;;;;;;;;5036067;28;20094;-83
2022/04/24 09:46:29;;;;;;;5.07;3.92;;;;;;;;;;5053849;28;20025;-83
2022/04/24 09:48:58;;;;;;;8.70;3.85;;;;;;;;;;5053019;28;20455;-82
2022/04/24 09:51:23;;;;;;;5.55;3.42;;;;;;;;;;5053870;28;20116;-83
2022/04/24 09:53:49;;;;;;;4.88;3.38;;;;;;;;;;5036362;28;20071;-86
2022/04/24 09:56:15;;;;;;;6.43;3.90;;;;;;;;;;5036191;28;20473;-83
2022/04/24 09:58:40;;;;;;;5.20;3.60;;;;;;;;;;5044436;28;20029;-84
2022/04/24 10:01:08;;;;;;;5.05;3.40;;;;;;;;;;5052605;28;20115;-84
2022/04/24 10:03:35;;;;;;;3.92;3.53;;;;;;;;;;5019746;28;20032;-82
2022/04/24 10:06:02;;;;;;;6.97;3.45;;;;;;;;;;5019620;28;20041;-82
2022/04/24 10:08:27;;;;;;;4.85;3.10;;;;;;;;;;5036292;28;20087;-83
2022/04/24 10:10:53;;;;;;;4.32;3.35;;;;;;;;;;5035982;28;20017;-83
2022/04/24 10:13:19;;;;;;;4.60;3.33;;;;;;;;;;5053686;28;20404;-83
2022/04/24 10:15:47;;;;;;;8.65;3.60;;;;;;;;;;5035997;28;20405;-82
2022/04/24 10:18:35;;;;;;;3.83;3.10;;;;;;;;;;5057207;28;20040;-82
2022/04/24 10:21:31;;;;;;;4.80;3.03;;;;;;;;;;5040863;28;20123;-84
2022/04/24 10:24:06;;;;;;;5.13;3.00;;;;;;;;;;5043652;28;20044;-82
2022/04/24 10:26:32;;;;;;;6.90;3.47;;;;;;;;;;5052020;28;20025;-83
2022/04/24 10:29:04;;;;;;;7.65;3.38;;;;;;;;;;5035912;28;20053;-83
2022/04/24 10:31:31;;;;;;;4.43;2.58;;;;;;;;;;5052650;28;20036;-82
2022/04/24 10:33:56;;;;;;;7.05;2.80;;;;;;;;;;5035809;28;20104;-84
2022/04/24 10:36:23;;;;;;;4.47;3.05;;;;;;;;;;5035881;28;20037;-81
2022/04/24 10:38:57;;;;;;;5.00;3.08;;;;;;;;;;5025656;28;20354;-82
2022/04/24 10:41:29;;;;;;;6.53;2.75;;;;;;;;;;5061981;28;20029;-83
2022/04/24 10:43:57;;;;;;;5.80;2.75;;;;;;;;;;5057099;28;20115;-81
2022/04/24 10:46:34;;;;;;;3.83;2.60;;;;;;;;;;5039586;28;20115;-81
2022/04/24 10:49:10;;;;;;;3.95;2.70;;;;;;;;;;5056976;28;20025;-83
2022/04/24 10:51:36;;;;;;;4.35;2.45;;;;;;;;;;5039866;28;20055;-83
2022/04/24 10:54:06;;;;;;;3.83;2.70;;;;;;;;;;5039057;28;20127;-81
2022/04/24 10:56:32;;;;;;;;;;;;;;;;;;5055851;28;20378;-82
2022/04/24 10:59:12;;;;;;;6.22;2.67;;;;;;;;;;5058206;28;19928;-81
2022/04/24 11:01:41;;;;;;;5.57;2.65;;;;;;;;;;5044234;28;20025;-83
2022/04/24 11:04:07;;;;;;;7.18;2.95;;;;;;;;;;5038998;28;20370;-84
2022/04/24 11:06:32;;;;;;;4.45;2.92;;;;;;;;;;5038846;28;20442;-83
2022/04/24 11:09:13;;;;;;;7.35;2.40;;;;;;;;;;5022433;28;20040;-83
2022/04/24 11:11:52;;;;;;;3.83;2.30;;;;;;;;;;5022173;28;20138;-83
2022/04/24 11:14:22;;;;;;;5.75;2.30;;;;;;;;;;5022357;28;20060;-82
2022/04/24 11:16:49;;;;;;;3.63;2.17;;;;;;;;;;5022987;28;20029;-83
2022/04/24 11:19:28;;;;;;;2.97;2.20;;;;;;;;;;5022832;28;20051;-81
2022/04/24 11:22:04;;;;;;;3.55;2.60;;;;;;;;;;5048346;28;20036;-83
2022/04/24 11:24:31;;;;;;;4.18;2.60;;;;;;;;;;5021713;28;20025;-82
2022/04/24 11:26:57;;;;;;;4.13;2.17;;;;;;;;;;5038384;28;20385;-82
2022/04/24 11:29:23;;;;;;;3.85;2.38;;;;;;;;;;5038530;28;20025;-83
2022/04/24 11:31:49;;;;;;;3.20;2.25;;;;;;;;;;5005755;28;20417;-81
2022/04/24 11:34:17;;;;;;;7.18;2.30;;;;;;;;;;5021916;28;20029;-82
2022/04/24 11:36:43;;;;;;;2.40;2.03;;;;;;;;;;5005891;28;20029;-81
2022/04/24 11:39:09;;;;;;;6.13;2.45;;;;;;;;;;5021582;28;20120;-83
2022/04/24 11:41:35;;;;;;;4.13;2.45;;;;;;;;;;5049584;28;20438;-84
2022/04/24 11:52:22;;;;;;;5.45;2.53;;;;;;;;;;5055803;28;20063;-82
2022/04/24 11:54:48;;;;;;;4.07;2.08;;;;;;;;;;5005068;28;20029;-82
2022/04/24 11:57:14;;;;;;;6.15;2.40;;;;;;;;;;5021616;28;20021;-81
2022/04/24 11:59:39;;;;;;;4.63;2.20;;;;;;;;;;5038077;28;20020;-82
2022/04/24 12:02:06;;;;;;;5.28;2.67;;;;;;;;;;5031935;28;20029;-81
2022/04/24 12:04:33;;;;;;;4.78;2.45;;;;;;;;;;5055477;28;20094;-84
2022/04/24 12:07:08;;;;;;;4.35;2.22;;;;;;;;;;5021302;28;20040;-83
2022/04/24 12:09:34;;;;;;;3.85;2.10;;;;;;;;;;5037597;28;20056;-81
2022/04/24 12:12:05;;;;;;;3.75;2.33;;;;;;;;;;5021334;28;20024;-82
2022/04/24 12:14:30;;;;;;;4.82;2.40;;;;;;;;;;5055354;28;20025;-81
2022/04/24 12:17:06;;;;;;;3.17;2.30;;;;;;;;;;5021045;28;20496;-82
2022/04/24 12:19:32;;;;;;;5.32;1.80;;;;;;;;;;5038653;28;20439;-83
2022/04/24 12:22:04;;;;;;;6.32;2.30;;;;;;;;;;5026413;28;20028;-81
2022/04/24 12:24:38;;;;;;;6.03;2.60;;;;;;;;;;5026491;28;20025;-84
2022/04/24 12:27:04;;;;;;;2.95;2.13;;;;;;;;;;5020838;28;20035;-81
2022/04/24 12:29:38;;;;;;;5.85;2.25;;;;;;;;;;5037398;28;20124;-82
2022/04/24 12:32:07;;;;;;;4.03;2.30;;;;;;;;;;5020931;28;20029;-83
2022/04/24 12:34:36;;;;;;;4.30;2.30;;;;;;;;;;5020803;28;20029;-83
2022/04/24 12:37:02;;;;;;;2.50;2.28;;;;;;;;;;5054705;28;20028;-84
2022/04/24 12:39:28;;;;;;;5.60;2.28;;;;;;;;;;5036992;28;20114;-83
2022/04/24 12:42:14;;;;;;;5.10;2.30;;;;;;;;;;5041316;28;20025;-82
2022/04/24 12:44:40;;;;;;;3.55;2.10;;;;;;;;;;5058274;28;20037;-83
2022/04/24 12:47:06;;;;;;;4.93;2.28;;;;;;;;;;5055440;28;20029;-82
2022/04/24 12:49:32;;;;;;;4.30;2.15;;;;;;;;;;5005037;28;20083;-84
2022/04/24 12:51:58;;;;;;;3.70;2.20;;;;;;;;;;5020970;28;20112;-82
2022/04/24 12:54:23;;;;;;;3.60;1.95;;;;;;;;;;5020630;28;20674;-82
2022/04/24 12:56:49;;;;;;;3.03;1.90;;;;;;;;;;5020737;28;20033;-83
2022/04/24 12:59:14;;;;;;;4.78;2.22;;;;;;;;;;5036693;28;20028;-81
2022/04/24 13:01:41;;;;;;;7.05;2.20;;;;;;;;;;5054399;28;20041;-81
2022/04/24 13:04:06;;;;;;;4.25;1.98;;;;;;;;;;5045575;28;20347;-84
2022/04/24 13:06:32;;;;;;;6.32;2.72;;;;;;;;;;5037400;28;20029;-84
2022/04/24 13:08:57;;;;;;;4.28;2.42;;;;;;;;;;5036684;28;20119;-83
2022/04/24 13:11:23;;;;;;;9.63;2.58;;;;;;;;;;5036419;28;20130;-82
2022/04/24 13:13:52;;;;;;;5.53;2.33;;;;;;;;;;5020045;28;20032;-82
2022/04/24 13:19:02;;;;;;;3.05;2.10;;;;;;;;;;5025244;28;20378;-82
2022/04/24 13:21:27;;;;;;;3.45;1.88;;;;;;;;;;5036446;28;20029;-82
2022/04/24 13:23:53;;;;;;;3.55;2.30;;;;;;;;;;5042387;28;20037;-82
2022/04/24 13:26:19;;;;;;;4.50;2.20;;;;;;;;;;5020590;28;20041;-82
2022/04/24 13:28:44;;;;;;;4.65;2.15;;;;;;;;;;5036560;28;20404;-82
2022/04/24 13:31:10;;;;;;;6.93;2.45;;;;;;;;;;5036471;28;20020;-84
2022/04/24 13:33:35;;;;;;;4.45;1.90;;;;;;;;;;5053995;28;20128;-82
2022/04/24 13:36:01;;;;;;;3.08;2.00;;;;;;;;;;5036008;28;20427;-82
2022/04/24 13:38:28;;;;;;;3.28;2.00;;;;;;;;;;5036247;28;20029;-82
2022/04/24 13:40:55;;;;;;;3.60;1.75;;;;;;;;;;5053950;28;20024;-83
2022/04/24 13:43:21;;;;;;;4.57;1.88;;;;;;;;;;5039011;28;20041;-82
2022/04/24 13:45:52;;;;;;;5.63;2.15;;;;;;;;;;5025866;28;20123;-82
2022/04/24 13:48:18;;;;;;;5.80;2.45;;;;;;;;;;5004885;28;20021;-82
2022/04/24 13:50:43;;;;;;;5.15;1.90;;;;;;;;;;5019437;28;20028;-83
2022/04/24 13:53:09;;;;;;;4.63;2.10;;;;;;;;;;5019878;28;20132;-81
2022/04/24 13:55:35;;;;;;;4.15;2.10;;;;;;;;;;5019644;28;20044;-84
2022/04/24 13:58:02;;;;;;;2.85;2.03;;;;;;;;;;5019805;28;20387;-83
2022/04/24 14:00:27;;;;;;;3.92;2.33;;;;;;;;;;5003795;28;20029;-81
2022/04/24 14:02:54;;;;;;;3.45;2.20;;;;;;;;;;5035902;28;20739;-81
2022/04/24 14:05:22;;;;;;;3.22;2.13;;;;;;;;;;5023307;28;20051;-81
2022/04/24 14:07:49;;;;;;;3.45;2.30;;;;;;;;;;5036353;28;20049;-82
2022/04/24 14:10:14;;;;;;;5.60;2.30;;;;;;;;;;5019935;28;20033;-82
2022/04/24 14:12:40;;;;;;;3.53;2.22;;;;;;;;;;5054202;28;20078;-81
2022/04/24 14:15:06;;;;;;;3.05;2.42;;;;;;;;;;5024098;28;20029;-82
2022/04/24 14:17:31;;;;;;;5.00;2.47;;;;;;;;;;5040040;28;20024;-81
2022/04/24 14:19:57;;;;;;;5.38;2.13;;;;;;;;;;5023432;28;20047;-81
2022/04/24 14:22:22;;;;;;;4.68;2.33;;;;;;;;;;5043669;28;20067;-82
2022/04/24 14:24:48;;;;;;;3.45;2.15;;;;;;;;;;5047585;28;20042;-81
2022/04/24 14:27:15;;;;;;;3.67;2.17;;;;;;;;;;5058003;28;20040;-81
2022/04/24 14:29:40;;;;;;;4.55;2.33;;;;;;;;;;5056925;28;20067;-81
2022/04/24 14:32:06;;;;;;;3.15;2.40;;;;;;;;;;5042096;28;20028;-82
2022/04/24 14:34:34;;;;;;;4.50;2.70;;;;;;;;;;5040940;28;20020;-82
2022/04/24 14:37:00;;;;;;;4.82;2.65;;;;;;;;;;5026694;28;20036;-82
2022/04/24 14:39:25;;;;;;;6.45;2.65;;;;;;;;;;5015025;28;20033;-82
2022/04/24 14:41:53;;;;;;;3.03;2.40;;;;;;;;;;5024383;28;20385;-83
2022/04/24 14:44:19;;;;;;;3.17;2.10;;;;;;;;;;5042970;28;20388;-83